createdAt,value
2022-10-22T00:01:24.745Z,96261.91
2022-10-22T00:03:53.018Z,96277.44
2022-10-22T00:06:21.329Z,96271.78
2022-10-22T00:08:51.231Z,96273.22
2022-10-22T00:11:21.091Z,96270.66
2022-10-22T00:13:49.594Z,96265.47
2022-10-22T00:16:17.950Z,96258.38
2022-10-22T00:18:46.197Z,96257.06
2022-10-22T00:21:14.557Z,96265.13
2022-10-22T00:23:43.476Z,96272.09
2022-10-22T00:26:13.714Z,96260.63
2022-10-22T00:28:41.997Z,96270.38
2022-10-22T00:31:10.319Z,96273.69
2022-10-22T00:33:38.642Z,96272.09
2022-10-22T00:36:07.494Z,96268.56
2022-10-22T00:38:36.061Z,96275.13
2022-10-22T00:41:04.394Z,96267.28
2022-10-22T00:43:34.349Z,96256.47
2022-10-22T00:46:02.609Z,96256.94
2022-10-22T00:48:34.580Z,96266.31
2022-10-22T00:51:05.613Z,96259.66
2022-10-22T00:53:37.996Z,96245.53
2022-10-22T00:56:07.854Z,96257.50
2022-10-22T00:58:41.266Z,96256.03
2022-10-22T01:01:14.156Z,96248.38
2022-10-22T01:03:42.612Z,96257.50
2022-10-22T01:06:16.423Z,96251.16
2022-10-22T01:08:51.094Z,96253.94
2022-10-22T01:11:28.731Z,96256.44
2022-10-22T01:14:05.876Z,96250.03
2022-10-22T01:16:38.753Z,96235.75
2022-10-22T01:19:28.027Z,96173.22
2022-10-22T01:22:02.065Z,96265.44
2022-10-22T01:24:42.689Z,96260.94
2022-10-22T01:27:21.475Z,96261.13
2022-10-22T01:29:54.958Z,96259.78
2022-10-22T01:32:26.487Z,96258.47
2022-10-22T01:35:01.457Z,96256.16
2022-10-22T01:37:33.448Z,96248.44
2022-10-22T01:40:03.578Z,96250.97
2022-10-22T01:42:31.871Z,96244.16
2022-10-22T01:45:01.548Z,96236.38
2022-10-22T01:47:42.129Z,96230.53
2022-10-22T01:50:43.195Z,96241.66
2022-10-22T01:53:22.883Z,96242.66
2022-10-22T01:56:05.822Z,96231.59
2022-10-22T01:58:43.925Z,96233.13
2022-10-22T02:01:23.814Z,96227.47
2022-10-22T02:03:58.611Z,96223.06
2022-10-22T02:06:29.045Z,96232.38
2022-10-22T02:08:59.027Z,96227.00
2022-10-22T02:11:27.797Z,96212.00
2022-10-22T02:13:59.920Z,96219.78
2022-10-22T02:16:33.373Z,96220.81
2022-10-22T02:19:07.361Z,96216.06
2022-10-22T02:21:35.618Z,96226.13
2022-10-22T02:24:03.790Z,96232.44
2022-10-22T02:26:38.927Z,96232.09
2022-10-22T02:29:14.961Z,96224.78
2022-10-22T02:31:48.346Z,96249.94
2022-10-22T02:34:23.795Z,96246.50
2022-10-22T02:36:53.426Z,96228.44
2022-10-22T02:39:22.902Z,96249.47
2022-10-22T02:41:51.181Z,96251.06
2022-10-22T02:44:23.191Z,96251.47
2022-10-22T02:46:52.880Z,96254.03
2022-10-22T02:49:21.157Z,96257.81
2022-10-22T02:51:50.118Z,96254.44
2022-10-22T02:54:18.321Z,96261.50
2022-10-22T02:56:46.604Z,96262.06
2022-10-22T02:59:14.874Z,96257.31
2022-10-22T03:01:44.093Z,96256.22
2022-10-22T03:04:13.817Z,96256.28
2022-10-22T03:06:44.205Z,96259.28
2022-10-22T03:09:12.989Z,96217.00
2022-10-22T03:11:41.321Z,96252.91
2022-10-22T03:14:09.662Z,96244.88
2022-10-22T03:16:37.921Z,96253.00
2022-10-22T03:19:06.241Z,96236.69
2022-10-22T03:21:40.423Z,96239.25
2022-10-22T03:24:14.646Z,96249.31
2022-10-22T03:26:44.702Z,96246.75
2022-10-22T03:29:15.952Z,96240.47
2022-10-22T03:31:44.225Z,96239.34
2022-10-22T03:34:13.570Z,96250.78
2022-10-22T03:36:43.565Z,96236.44
2022-10-22T03:39:13.607Z,96254.69
2022-10-22T03:41:42.909Z,96262.19
2022-10-22T03:44:11.817Z,96268.75
2022-10-22T03:46:40.109Z,96267.69
2022-10-22T03:49:08.401Z,96264.25
2022-10-22T03:51:37.080Z,96268.00
2022-10-22T03:54:07.091Z,96272.47
2022-10-22T03:56:35.422Z,96284.66
2022-10-22T03:59:03.836Z,96268.31
2022-10-22T04:01:33.252Z,96277.31
2022-10-22T04:04:01.556Z,96271.38
2022-10-22T04:06:31.514Z,96273.63
2022-10-22T04:09:01.263Z,96268.94
2022-10-22T04:11:31.054Z,96270.56
2022-10-22T04:13:59.398Z,96273.72
2022-10-22T04:16:31.131Z,96275.97
2022-10-22T04:18:59.959Z,96279.28
2022-10-22T04:21:28.249Z,96287.63
2022-10-22T04:23:56.441Z,96281.03
2022-10-22T04:26:25.081Z,96285.34
2022-10-22T04:28:55.040Z,96289.66
2022-10-22T04:31:25.475Z,96283.69
2022-10-22T04:33:56.116Z,96232.25
2022-10-22T04:36:25.654Z,96254.59
2022-10-22T04:38:55.980Z,96254.59
2022-10-22T04:41:26.050Z,96245.09
2022-10-22T04:43:56.652Z,96246.41
2022-10-22T04:46:26.592Z,96244.81
2022-10-22T04:48:54.901Z,96264.53
2022-10-22T04:51:25.516Z,96251.31
2022-10-22T04:53:53.868Z,96258.22
2022-10-22T04:56:25.115Z,96245.53
2022-10-22T04:58:58.040Z,96218.44
2022-10-22T05:01:29.111Z,96262.84
2022-10-22T05:03:59.169Z,96264.53
2022-10-22T05:06:28.308Z,96261.81
2022-10-22T05:08:58.830Z,96267.81
2022-10-22T05:11:29.493Z,96269.84
2022-10-22T05:14:00.900Z,96283.13
2022-10-22T05:16:30.553Z,96280.72
2022-10-22T05:19:00.615Z,96282.13
2022-10-22T05:21:29.274Z,96290.94
2022-10-22T05:23:59.950Z,96257.84
2022-10-22T05:26:29.617Z,96271.84
2022-10-22T05:28:59.252Z,96282.59
2022-10-22T05:31:28.957Z,96285.00
2022-10-22T05:33:57.418Z,96294.53
2022-10-22T05:36:25.891Z,96294.41
2022-10-22T05:38:54.687Z,96294.63
2022-10-22T05:41:24.765Z,96282.22
2022-10-22T05:43:55.490Z,96290.00
2022-10-22T05:46:27.097Z,96296.94
2022-10-22T05:48:57.285Z,96284.31
2022-10-22T05:51:26.632Z,96230.38
2022-10-22T05:53:56.556Z,96289.38
2022-10-22T05:56:26.237Z,96284.56
2022-10-22T05:58:54.861Z,96191.13
2022-10-22T06:01:27.429Z,96265.00
2022-10-22T06:03:56.878Z,96263.75
2022-10-22T06:06:35.294Z,96276.16
2022-10-22T06:09:06.656Z,96278.56
2022-10-22T06:11:35.469Z,96276.31
2022-10-22T06:14:04.585Z,96285.56
2022-10-22T06:16:34.244Z,96276.69
2022-10-22T06:19:03.408Z,96280.59
2022-10-22T06:21:32.377Z,96280.63
2022-10-22T06:24:01.600Z,96281.88
2022-10-22T06:26:30.034Z,96279.50
2022-10-22T06:28:59.071Z,96270.97
2022-10-22T06:31:28.552Z,96281.47
2022-10-22T06:33:58.631Z,96284.59
2022-10-22T06:36:26.881Z,96287.53
2022-10-22T06:38:56.173Z,96285.25
2022-10-22T06:41:28.626Z,96278.06
2022-10-22T06:43:58.492Z,96279.00
2022-10-22T06:46:27.660Z,96276.59
2022-10-22T06:48:59.420Z,96278.41
2022-10-22T06:51:28.870Z,96260.06
2022-10-22T06:53:58.073Z,96280.50
2022-10-22T06:56:28.761Z,96279.94
2022-10-22T06:58:58.259Z,96275.38
2022-10-22T07:01:28.374Z,96278.47
2022-10-22T07:03:58.668Z,96276.28
2022-10-22T07:06:28.871Z,96281.56
2022-10-22T07:08:58.116Z,96261.66
2022-10-22T07:11:28.458Z,96132.69
2022-10-22T07:13:58.143Z,96264.19
2022-10-22T07:16:31.214Z,96090.72
2022-10-22T07:19:02.214Z,96263.47
2022-10-22T07:21:31.584Z,96268.78
2022-10-22T07:24:00.331Z,96268.09
2022-10-22T07:26:32.837Z,96254.59
2022-10-22T07:29:01.327Z,96253.38
2022-10-22T07:31:29.829Z,96255.25
2022-10-22T07:33:58.627Z,96245.03
2022-10-22T07:36:28.361Z,96246.78
2022-10-22T07:38:58.454Z,96233.78
2022-10-22T07:41:28.042Z,96114.84
2022-10-22T07:43:56.464Z,96257.03
2022-10-22T07:46:25.272Z,96237.88
2022-10-22T07:48:54.001Z,96235.06
2022-10-22T07:51:22.633Z,96240.06
2022-10-22T07:53:55.359Z,96234.94
2022-10-22T07:56:23.732Z,96246.94
2022-10-22T07:58:52.056Z,96235.44
2022-10-22T08:01:20.421Z,96230.88
2022-10-22T08:03:49.013Z,96221.97
2022-10-22T08:06:17.884Z,96218.16
2022-10-22T08:08:47.028Z,96216.97
2022-10-22T08:11:16.852Z,96217.56
2022-10-22T08:13:45.973Z,96191.88
2022-10-22T08:16:15.219Z,96208.72
2022-10-22T08:18:43.929Z,96217.06
2022-10-22T08:21:12.263Z,96217.19
2022-10-22T08:23:40.751Z,96212.19
2022-10-22T08:26:09.237Z,96203.72
2022-10-22T08:28:38.927Z,96215.06
2022-10-22T08:31:08.518Z,96214.63
2022-10-22T08:33:37.233Z,96202.25
2022-10-22T08:36:06.701Z,96193.69
2022-10-22T08:38:35.436Z,96193.03
2022-10-22T08:41:11.008Z,96123.50
2022-10-22T08:44:05.147Z,96179.41
2022-10-22T08:46:56.772Z,96147.56
2022-10-22T08:49:29.006Z,96006.25
2022-10-22T08:51:58.615Z,96063.00
2022-10-22T08:54:44.269Z,96175.97
2022-10-22T08:57:27.594Z,96168.63
2022-10-22T09:00:06.076Z,96155.88
2022-10-22T09:02:45.147Z,96113.69
2022-10-22T09:05:29.385Z,96186.66
2022-10-22T09:07:58.427Z,96178.59
2022-10-22T09:10:31.371Z,96174.72
2022-10-22T09:12:59.820Z,96176.34
2022-10-22T09:15:31.491Z,96166.66
2022-10-22T09:18:12.128Z,96174.38
2022-10-22T09:20:46.744Z,96166.97
2022-10-22T09:23:25.673Z,96158.50
2022-10-22T09:25:55.498Z,96163.19
2022-10-22T09:28:23.838Z,96160.44
2022-10-22T09:30:53.838Z,96142.75
2022-10-22T09:33:26.109Z,96152.13
2022-10-22T09:35:56.584Z,96156.59
2022-10-22T09:38:27.952Z,96155.19
2022-10-22T09:40:58.416Z,96130.78
2022-10-22T09:43:26.931Z,96135.31
2022-10-22T09:46:00.249Z,96133.16
2022-10-22T09:48:32.251Z,96124.69
2022-10-22T09:51:11.467Z,96127.66
2022-10-22T09:53:43.971Z,96126.25
2022-10-22T09:56:22.616Z,96120.84
2022-10-22T09:58:52.561Z,96079.00
2022-10-22T10:01:25.665Z,96111.22
2022-10-22T10:03:54.544Z,96110.06
2022-10-22T10:06:24.459Z,96107.56
2022-10-22T10:08:52.851Z,96101.41
2022-10-22T10:11:29.660Z,96097.75
2022-10-22T10:14:09.529Z,96089.19
2022-10-22T10:16:59.257Z,96072.25
2022-10-22T10:19:44.670Z,96001.00
2022-10-22T10:22:28.781Z,96066.03
2022-10-22T10:25:19.248Z,96068.59
2022-10-22T10:27:55.561Z,96055.47
2022-10-22T10:30:27.229Z,96050.19
2022-10-22T10:33:11.455Z,96044.34
2022-10-22T10:35:47.492Z,96052.84
2022-10-22T10:38:33.436Z,96047.47
2022-10-22T10:41:09.444Z,96039.09
2022-10-22T10:43:47.518Z,96034.94
2022-10-22T10:46:23.296Z,96038.59
2022-10-22T10:48:57.128Z,96023.28
2022-10-22T10:51:37.183Z,96032.13
2022-10-22T10:54:17.425Z,95956.38
2022-10-22T10:56:50.360Z,96019.41
2022-10-22T10:59:24.900Z,96007.06
2022-10-22T11:02:32.381Z,96003.63
2022-10-22T11:05:29.967Z,95997.59
2022-10-22T11:08:02.476Z,95990.91
2022-10-22T11:10:37.318Z,95990.53
2022-10-22T11:13:12.522Z,95981.09
2022-10-22T11:15:42.325Z,95982.38
2022-10-22T11:18:19.293Z,95971.28
2022-10-22T11:20:56.500Z,95930.34
2022-10-22T11:23:31.872Z,95965.50
2022-10-22T11:26:02.695Z,95955.25
2022-10-22T11:28:35.064Z,95950.81
2022-10-22T11:31:08.545Z,95948.34
2022-10-22T11:33:44.965Z,95945.38
2022-10-22T11:36:15.696Z,95940.22
2022-10-22T11:38:44.225Z,95917.91
2022-10-22T11:41:15.245Z,95925.22
2022-10-22T11:44:07.020Z,95934.75
2022-10-22T11:46:46.533Z,95937.94
2022-10-22T11:49:25.687Z,95931.03
2022-10-22T11:52:23.058Z,95924.38
2022-10-22T11:54:56.233Z,95921.94
2022-10-22T11:57:29.292Z,95910.47
2022-10-22T12:00:01.553Z,95912.16
2022-10-22T12:02:44.966Z,95917.78
2022-10-22T12:05:43.237Z,95908.47
2022-10-22T12:08:23.778Z,95907.13
2022-10-22T12:11:04.963Z,95908.69
2022-10-22T12:13:35.882Z,95912.91
2022-10-22T12:16:05.852Z,95905.59
2022-10-22T12:18:42.621Z,95896.97
2022-10-22T12:21:14.394Z,95890.13
2022-10-22T12:23:46.912Z,95889.97
2022-10-22T12:29:04.542Z,95882.22
2022-10-22T12:31:38.463Z,95874.09
2022-10-22T12:34:08.202Z,95874.06
2022-10-22T12:36:37.899Z,95865.63
2022-10-22T12:39:15.015Z,95868.97
2022-10-22T12:41:44.267Z,95868.84
2022-10-22T12:44:14.705Z,95858.38
2022-10-22T12:46:45.537Z,95862.59
2022-10-22T12:49:18.372Z,95865.00
2022-10-22T12:51:47.987Z,95863.97
2022-10-22T12:54:27.116Z,95840.00
2022-10-22T12:56:56.676Z,95854.88
2022-10-22T12:59:28.031Z,95856.34
2022-10-22T13:01:57.706Z,95842.72
2022-10-22T13:04:37.668Z,95834.88
2022-10-22T13:07:19.716Z,95838.97
2022-10-22T13:10:00.364Z,95848.34
2022-10-22T13:12:35.900Z,95844.59
2022-10-22T13:15:23.806Z,95846.47
2022-10-22T13:17:52.072Z,95840.69
2022-10-22T13:20:23.010Z,95840.03
2022-10-22T13:22:58.191Z,95837.16
2022-10-22T13:25:30.122Z,95828.81
2022-10-22T13:28:00.859Z,95845.94
2022-10-22T13:30:30.908Z,95847.97
2022-10-22T13:33:01.285Z,95851.44
2022-10-22T13:35:32.980Z,95842.00
2022-10-22T13:38:01.424Z,95840.06
2022-10-22T13:40:31.132Z,95841.13
2022-10-22T13:42:59.604Z,95846.16
2022-10-22T13:45:28.082Z,95842.44
2022-10-22T13:47:57.231Z,95840.75
2022-10-22T13:50:25.587Z,95843.16
2022-10-22T13:52:56.410Z,95844.66
2022-10-22T13:55:26.878Z,95842.50
2022-10-22T13:57:57.791Z,95835.97
2022-10-22T14:00:26.875Z,95851.59
2022-10-22T14:02:58.277Z,95840.56
2022-10-22T14:05:26.841Z,95829.13
2022-10-22T14:07:55.320Z,95848.44
2022-10-22T14:10:25.556Z,95834.72
2022-10-22T14:12:54.181Z,95842.50
2022-10-22T14:15:25.379Z,95827.16
2022-10-22T14:17:56.886Z,95835.59
2022-10-22T14:20:29.020Z,95769.97
2022-10-22T14:22:57.882Z,95838.56
2022-10-22T14:25:28.027Z,95835.41
2022-10-22T14:27:56.689Z,95841.16
2022-10-22T14:30:29.803Z,95837.13
2022-10-22T14:32:59.718Z,95841.34
2022-10-22T14:35:27.968Z,95832.31
2022-10-22T14:37:58.373Z,95834.53
2022-10-22T14:40:26.714Z,95831.94
2022-10-22T14:42:55.012Z,95825.56
2022-10-22T14:45:27.283Z,95831.56
2022-10-22T14:47:56.337Z,95826.84
2022-10-22T14:50:25.483Z,95829.22
2022-10-22T14:52:53.799Z,95825.16
2022-10-22T14:55:22.298Z,95835.03
2022-10-22T14:57:50.545Z,95830.59
2022-10-22T15:00:21.388Z,95837.38
2022-10-22T15:02:51.049Z,95825.09
2022-10-22T15:05:19.675Z,95826.81
2022-10-22T15:07:47.899Z,95837.41
2022-10-22T15:10:16.280Z,95826.97
2022-10-22T15:12:44.577Z,95836.09
2022-10-22T15:15:13.100Z,95837.59
2022-10-22T15:17:41.460Z,95829.75
2022-10-22T15:20:11.644Z,95833.25
2022-10-22T15:22:40.360Z,95820.84
2022-10-22T15:25:10.469Z,95838.69
2022-10-22T15:27:38.809Z,95837.69
2022-10-22T15:30:09.307Z,95833.84
2022-10-22T15:32:37.626Z,95847.94
2022-10-22T15:35:08.207Z,95845.53
2022-10-22T15:37:41.247Z,95836.28
2022-10-22T15:40:10.268Z,95848.25
2022-10-22T15:42:38.909Z,95844.03
2022-10-22T15:45:09.126Z,95851.38
2022-10-22T15:47:37.348Z,95866.41
2022-10-22T15:50:06.087Z,95852.19
2022-10-22T15:52:34.415Z,95859.00
2022-10-22T15:55:07.129Z,95857.56
2022-10-22T15:57:35.404Z,95859.47
2022-10-22T16:00:03.858Z,95863.44
2022-10-22T16:02:32.132Z,95869.78
2022-10-22T16:05:00.481Z,95868.06
2022-10-22T16:07:28.749Z,95867.63
2022-10-22T16:09:57.829Z,95868.34
2022-10-22T16:12:27.854Z,95788.63
2022-10-22T16:14:56.103Z,95862.09
2022-10-22T16:17:24.613Z,95821.16
2022-10-22T16:19:52.910Z,95880.09
2022-10-22T16:22:21.153Z,95880.91
2022-10-22T16:24:49.378Z,95872.25
2022-10-22T16:27:17.700Z,95882.09
2022-10-22T16:29:47.370Z,95885.66
2022-10-22T16:32:16.572Z,95888.94
2022-10-22T16:34:44.935Z,95896.09
2022-10-22T16:37:13.333Z,95885.63
2022-10-22T16:39:41.714Z,95885.56
2022-10-22T16:42:10.045Z,95888.97
2022-10-22T16:44:38.464Z,95905.06
2022-10-22T16:47:08.188Z,95893.00
2022-10-22T16:49:36.560Z,95906.88
2022-10-22T16:52:06.050Z,95904.00
2022-10-22T16:54:34.991Z,95813.16
2022-10-22T16:57:04.001Z,95853.00
2022-10-22T16:59:32.900Z,95924.06
2022-10-22T17:02:01.878Z,95915.44
2022-10-22T17:04:31.580Z,95911.19
2022-10-22T17:06:59.819Z,95911.47
2022-10-22T17:09:28.135Z,95917.75
2022-10-22T17:11:56.742Z,95888.13
2022-10-22T17:14:25.556Z,95930.22
2022-10-22T17:16:54.220Z,95919.91
2022-10-22T17:19:24.101Z,95915.16
2022-10-22T17:21:54.435Z,95901.50
2022-10-22T17:24:23.074Z,95920.94
2022-10-22T17:26:51.628Z,95925.28
2022-10-22T17:29:22.009Z,95931.47
2022-10-22T17:31:50.445Z,95926.53
2022-10-22T17:34:18.766Z,95920.75
2022-10-22T17:36:47.307Z,95917.03
2022-10-22T17:39:19.895Z,95914.25
2022-10-22T17:41:48.450Z,95911.03
2022-10-22T17:44:17.417Z,95924.88
2022-10-22T17:46:46.009Z,95936.72
2022-10-22T17:49:18.648Z,95941.53
2022-10-22T17:51:47.379Z,95941.84
2022-10-22T17:54:17.629Z,95919.44
2022-10-22T17:56:46.054Z,95935.19
2022-10-22T17:59:16.364Z,95938.56
2022-10-22T18:01:45.919Z,95928.09
2022-10-22T18:04:17.708Z,95937.44
2022-10-22T18:06:47.094Z,95921.69
2022-10-22T18:09:19.271Z,95922.81
2022-10-22T18:11:47.900Z,95929.84
2022-10-22T18:14:16.159Z,95884.00
2022-10-22T18:16:44.405Z,95912.63
2022-10-22T18:19:15.556Z,95895.94
2022-10-22T18:21:44.063Z,95940.16
2022-10-22T18:24:12.794Z,95772.56
2022-10-22T18:26:42.949Z,95934.56
2022-10-22T18:29:12.165Z,95855.94
2022-10-22T18:31:40.830Z,95933.09
2022-10-22T18:34:09.250Z,95945.47
2022-10-22T18:36:38.625Z,95928.22
2022-10-22T18:39:07.147Z,95944.44
2022-10-22T18:41:36.031Z,95922.47
2022-10-22T18:44:08.354Z,95809.13
2022-10-22T18:46:38.458Z,95945.94
2022-10-22T18:49:08.281Z,95931.16
2022-10-22T18:51:37.273Z,95930.34
2022-10-22T18:54:21.775Z,95932.97
2022-10-22T18:56:51.369Z,95840.16
2022-10-22T18:59:23.250Z,95934.25
2022-10-22T19:01:53.189Z,95926.16
2022-10-22T19:04:21.496Z,95926.81
2022-10-22T19:06:49.998Z,95928.25
2022-10-22T19:09:18.378Z,95937.00
2022-10-22T19:11:47.055Z,95855.31
2022-10-22T19:14:19.503Z,95945.22
2022-10-22T19:16:49.830Z,95937.22
2022-10-22T19:19:20.874Z,95946.66
2022-10-22T19:21:50.006Z,95925.28
2022-10-22T19:24:20.316Z,95943.63
2022-10-22T19:26:49.630Z,95950.34
2022-10-22T19:29:19.835Z,95868.75
2022-10-22T19:31:51.210Z,95970.09
2022-10-22T19:34:19.817Z,95962.69
2022-10-22T19:36:48.215Z,95958.97
2022-10-22T19:39:17.545Z,95970.03
2022-10-22T19:41:45.879Z,95967.44
2022-10-22T19:44:14.111Z,95965.53
2022-10-22T19:46:42.745Z,95960.75
2022-10-22T19:49:12.540Z,95961.16
2022-10-22T19:51:41.097Z,95956.88
2022-10-22T19:54:15.756Z,95949.31
2022-10-22T19:56:44.017Z,95952.31
2022-10-22T19:59:12.574Z,95948.09
2022-10-22T20:01:40.924Z,95947.03
2022-10-22T20:04:09.331Z,95931.31
2022-10-22T20:06:39.520Z,95925.59
2022-10-22T20:09:07.805Z,95942.03
2022-10-22T20:11:35.951Z,95942.03
2022-10-22T20:14:04.756Z,95935.72
2022-10-22T20:16:33.354Z,95693.72
2022-10-22T20:19:02.877Z,95939.72
2022-10-22T20:21:32.400Z,95941.31
2022-10-22T20:24:03.113Z,95942.44
2022-10-22T20:26:31.861Z,95940.09
2022-10-22T20:29:00.512Z,95949.16
2022-10-22T20:31:30.888Z,95945.63
2022-10-22T20:34:01.221Z,95951.31
2022-10-22T20:36:31.674Z,95945.44
2022-10-22T20:39:03.526Z,95945.63
2022-10-22T20:41:31.864Z,95957.13
2022-10-22T20:44:00.080Z,95952.97
2022-10-22T20:46:30.350Z,95946.16
2022-10-22T20:49:01.380Z,95960.16
2022-10-22T20:51:29.892Z,95945.13
2022-10-22T20:53:58.433Z,95943.28
2022-10-22T20:56:28.313Z,95943.94
2022-10-22T20:59:04.580Z,95862.25
2022-10-22T21:01:35.043Z,95935.63
2022-10-22T21:04:03.301Z,95938.75
2022-10-22T21:06:31.829Z,95929.31
2022-10-22T21:09:00.161Z,95934.59
2022-10-22T21:11:29.819Z,95932.59
2022-10-22T21:13:58.297Z,95866.50
2022-10-22T21:16:26.658Z,95943.56
2022-10-22T21:18:54.928Z,95930.88
2022-10-22T21:21:23.293Z,95935.56
2022-10-22T21:23:51.695Z,95949.78
2022-10-22T21:26:20.356Z,95942.94
2022-10-22T21:28:50.159Z,95938.63
2022-10-22T21:31:22.123Z,95944.28
2022-10-22T21:33:51.732Z,95924.69
2022-10-22T21:36:22.964Z,95926.34
2022-10-22T21:38:52.279Z,95927.50
2022-10-22T21:41:22.663Z,95920.97
2022-10-22T21:43:52.801Z,95920.44
2022-10-22T21:46:22.495Z,95834.78
2022-10-22T21:48:54.884Z,95917.66
2022-10-22T21:51:24.283Z,95913.03
2022-10-22T21:53:53.031Z,95915.72
2022-10-22T21:56:23.414Z,95915.13
2022-10-22T21:58:53.493Z,95919.63
2022-10-22T22:01:22.171Z,95897.19
2022-10-22T22:03:51.618Z,95905.50
2022-10-22T22:06:22.014Z,95912.81
2022-10-22T22:08:51.088Z,95863.22
2022-10-22T22:11:21.599Z,95867.47
2022-10-22T22:13:50.167Z,95919.50
2022-10-22T22:16:25.401Z,95920.06
2022-10-22T22:18:57.153Z,95902.50
2022-10-22T22:21:25.469Z,95922.16
2022-10-22T22:23:53.710Z,95914.56
2022-10-22T22:26:28.244Z,95905.84
2022-10-22T22:28:59.412Z,95914.63
2022-10-22T22:31:30.831Z,95906.75
2022-10-22T22:34:03.749Z,95913.09
2022-10-22T22:36:35.873Z,95910.16
2022-10-22T22:39:04.783Z,95901.38
2022-10-22T22:41:33.004Z,95888.38
2022-10-22T22:44:01.662Z,95893.41
2022-10-22T22:46:31.392Z,95900.34
2022-10-22T22:48:59.837Z,95906.56
2022-10-22T22:51:28.544Z,95898.94
2022-10-22T22:53:58.428Z,95908.09
2022-10-22T22:56:28.444Z,95904.22
2022-10-22T22:58:56.934Z,95886.53
2022-10-22T23:01:27.304Z,95904.53
2022-10-22T23:03:59.350Z,95904.41
2022-10-22T23:06:29.026Z,95897.19
2022-10-22T23:08:58.102Z,95906.75
2022-10-22T23:11:27.572Z,95901.09
2022-10-22T23:13:58.554Z,95878.25
2022-10-22T23:16:28.607Z,95909.38
2022-10-22T23:18:59.104Z,95904.22
2022-10-22T23:21:29.412Z,95893.03
2022-10-22T23:23:59.315Z,95898.94
2022-10-22T23:26:30.114Z,95898.16
2022-10-22T23:29:02.139Z,95894.13
2022-10-22T23:31:30.495Z,95890.28
2022-10-22T23:34:00.399Z,95882.44
2022-10-22T23:36:29.263Z,95869.44
2022-10-22T23:38:58.183Z,95886.69
2022-10-22T23:41:26.477Z,95889.53
2022-10-22T23:43:54.725Z,95888.50
2022-10-22T23:46:23.047Z,95899.44
2022-10-22T23:48:53.848Z,95888.19
2022-10-22T23:51:23.929Z,95902.59
2022-10-22T23:53:57.264Z,95891.34
2022-10-22T23:56:26.296Z,95900.38
2022-10-22T23:58:55.884Z,95903.44
